createdAt,value
2018-10-09T00:02:13.635Z,101975.75
2018-10-09T00:04:42.848Z,101968.46
2018-10-09T00:07:11.981Z,101966.94
2018-10-09T00:09:41.268Z,101966.52
2018-10-09T00:12:10.978Z,101973.66
2018-10-09T00:14:40.188Z,101976.73
2018-10-09T00:17:09.456Z,101988.14
2018-10-09T00:19:38.602Z,101991.12
2018-10-09T00:22:07.813Z,101989.09
2018-10-09T00:24:37.116Z,101995.61
2018-10-09T00:27:06.279Z,101992.64
2018-10-09T00:29:35.877Z,101996.80
2018-10-09T00:32:05.012Z,101993.54
2018-10-09T00:34:34.168Z,101998.25
2018-10-09T00:37:03.427Z,101994.75
2018-10-09T00:39:33.004Z,101996.63
2018-10-09T00:42:02.188Z,101990.97
2018-10-09T00:44:31.439Z,101997.30
2018-10-09T00:47:00.748Z,101994.15
2018-10-09T00:49:30.068Z,101993.97
2018-10-09T00:51:59.363Z,101991.64
2018-10-09T00:54:28.576Z,101980.91
2018-10-09T00:56:57.776Z,101985.25
2018-10-09T00:59:26.976Z,101997.45
2018-10-09T01:01:56.220Z,101987.62
2018-10-09T01:04:25.409Z,101991.67
2018-10-09T01:06:54.612Z,101992.97
2018-10-09T01:09:23.799Z,101990.09
2018-10-09T01:11:52.961Z,101988.12
2018-10-09T01:14:22.125Z,101985.63
2018-10-09T01:16:51.323Z,101982.80
2018-10-09T01:19:20.504Z,101981.45
2018-10-09T01:21:49.670Z,101976.28
2018-10-09T01:24:18.928Z,101963.70
2018-10-09T01:26:48.065Z,101974.34
2018-10-09T01:29:17.330Z,101978.22
2018-10-09T01:31:46.527Z,101975.08
2018-10-09T01:34:15.746Z,101967.53
2018-10-09T01:36:45.012Z,101973.20
2018-10-09T01:39:14.164Z,101968.84
2018-10-09T01:41:43.343Z,101978.35
2018-10-09T01:44:12.547Z,101972.87
2018-10-09T01:46:41.824Z,101967.53
2018-10-09T01:49:10.955Z,101973.03
2018-10-09T01:51:40.150Z,101970.73
2018-10-09T01:54:09.304Z,101966.76
2018-10-09T01:56:38.606Z,101963.77
2018-10-09T01:59:07.851Z,101961.78
2018-10-09T02:01:37.083Z,101964.28
2018-10-09T02:04:06.240Z,101973.60
2018-10-09T02:06:46.733Z,101969.11
2018-10-09T02:09:15.922Z,101961.45
2018-10-09T02:11:45.128Z,101963.97
2018-10-09T02:14:14.414Z,101951.94
2018-10-09T02:16:43.739Z,101950.94
2018-10-09T02:19:12.936Z,101960.95
2018-10-09T02:21:42.259Z,101959.47
2018-10-09T02:24:11.488Z,101960.80
2018-10-09T02:26:40.697Z,101948.63
2018-10-09T02:29:09.994Z,101940.25
2018-10-09T02:31:39.199Z,101941.08
2018-10-09T02:34:08.453Z,101934.28
2018-10-09T02:36:37.623Z,101925.92
2018-10-09T02:39:09.136Z,101924.39
2018-10-09T02:41:38.473Z,101929.91
2018-10-09T02:44:08.092Z,101915.59
2018-10-09T02:46:37.300Z,101916.28
2018-10-09T02:49:06.785Z,101915.23
2018-10-09T02:51:36.337Z,101914.22
2018-10-09T02:54:05.791Z,101906.77
2018-10-09T02:56:35.010Z,101906.31
2018-10-09T02:59:04.317Z,101904.98
2018-10-09T03:06:34.604Z,101916.97
2018-10-09T03:09:04.803Z,101925.00
2018-10-09T03:11:34.098Z,101929.34
2018-10-09T03:14:03.347Z,101932.83
2018-10-09T03:16:32.564Z,101949.48
2018-10-09T03:19:04.789Z,101943.80
2018-10-09T03:21:34.024Z,101943.51
2018-10-09T03:24:03.225Z,101942.48
2018-10-09T03:26:32.412Z,101938.34
2018-10-09T03:29:01.610Z,101935.36
2018-10-09T03:31:30.876Z,101930.83
2018-10-09T03:34:00.155Z,101933.62
2018-10-09T03:36:29.413Z,101931.28
2018-10-09T03:38:58.615Z,101933.16
2018-10-09T03:41:27.834Z,101928.86
2018-10-09T03:43:57.129Z,101928.05
2018-10-09T03:46:26.369Z,101932.69
2018-10-09T03:48:56.640Z,101933.86
2018-10-09T03:51:25.806Z,101932.90
2018-10-09T03:53:54.941Z,101941.23
2018-10-09T03:56:24.145Z,101945.34
2018-10-09T03:58:53.451Z,101944.34
2018-10-09T04:01:22.615Z,101941.53
2018-10-09T04:03:51.795Z,101951.70
2018-10-09T04:06:21.044Z,101954.05
2018-10-09T04:08:50.370Z,101956.71
2018-10-09T04:11:19.838Z,101965.06
2018-10-09T04:13:49.181Z,101959.41
2018-10-09T04:16:18.328Z,101956.77
2018-10-09T04:18:48.132Z,101959.78
2018-10-09T04:21:17.369Z,101962.61
2018-10-09T04:23:46.500Z,101953.09
2018-10-09T04:26:15.682Z,101956.74
2018-10-09T04:28:44.930Z,101958.26
2018-10-09T04:31:14.123Z,101955.92
2018-10-09T04:33:43.292Z,101949.09
2018-10-09T04:36:12.475Z,101945.44
2018-10-09T04:38:41.768Z,101949.09
2018-10-09T04:41:10.957Z,101935.27
2018-10-09T04:43:40.230Z,101928.42
2018-10-09T04:46:09.489Z,101934.06
2018-10-09T04:48:38.674Z,101934.06
2018-10-09T04:51:07.948Z,101945.41
2018-10-09T04:53:37.145Z,101950.58
2018-10-09T04:56:06.427Z,101948.73
2018-10-09T04:58:35.612Z,101944.09
2018-10-09T05:01:04.866Z,101938.61
2018-10-09T05:03:34.098Z,101947.77
2018-10-09T05:06:03.280Z,101955.27
2018-10-09T05:08:32.546Z,101962.09
2018-10-09T05:11:01.803Z,101951.78
2018-10-09T05:13:30.991Z,101950.77
2018-10-09T05:16:00.176Z,101946.59
2018-10-09T05:18:29.395Z,101936.27
2018-10-09T05:20:58.584Z,101929.80
2018-10-09T05:23:27.835Z,101934.11
2018-10-09T05:25:57.084Z,101933.78
2018-10-09T05:28:26.244Z,101927.95
2018-10-09T05:30:55.444Z,101944.77
2018-10-09T05:33:24.655Z,101933.12
2018-10-09T05:35:53.856Z,101933.78
2018-10-09T05:38:23.103Z,101936.95
2018-10-09T05:40:52.345Z,101941.09
2018-10-09T05:43:21.505Z,101941.27
2018-10-09T05:45:50.677Z,101951.44
2018-10-09T05:48:19.892Z,101952.62
2018-10-09T05:50:49.071Z,101964.77
2018-10-09T05:53:18.185Z,101967.59
2018-10-09T05:55:47.398Z,101970.45
2018-10-09T05:58:16.630Z,101971.12
2018-10-09T06:00:45.781Z,101960.46
2018-10-09T06:03:14.940Z,101968.27
2018-10-09T06:05:44.175Z,101972.11
2018-10-09T06:08:13.308Z,101965.77
2018-10-09T06:10:42.536Z,101976.43
2018-10-09T06:13:11.787Z,101976.75
2018-10-09T06:15:41.141Z,101983.75
2018-10-09T06:18:10.248Z,101983.22
2018-10-09T06:20:39.453Z,101981.73
2018-10-09T06:23:08.664Z,101977.72
2018-10-09T06:25:38.104Z,101980.70
2018-10-09T06:28:07.795Z,101981.36
2018-10-09T06:30:37.075Z,101988.67
2018-10-09T06:33:06.356Z,101988.98
2018-10-09T06:35:35.516Z,101994.01
2018-10-09T06:38:04.723Z,101997.34
2018-10-09T06:40:33.953Z,102003.60
2018-10-09T06:43:03.146Z,102012.88
2018-10-09T06:45:32.347Z,102020.23
2018-10-09T06:48:01.564Z,102027.53
2018-10-09T06:50:30.706Z,102036.20
2018-10-09T06:52:59.971Z,102027.53
2018-10-09T06:55:29.139Z,102031.50
2018-10-09T06:57:58.312Z,102031.47
2018-10-09T07:00:27.493Z,102026.73
2018-10-09T07:02:56.750Z,102027.67
2018-10-09T07:05:25.917Z,102026.98
2018-10-09T07:07:55.151Z,102031.35
2018-10-09T07:10:24.366Z,102034.03
2018-10-09T07:12:53.568Z,102036.48
2018-10-09T07:15:22.804Z,102030.92
2018-10-09T07:17:51.923Z,102031.22
2018-10-09T07:20:21.155Z,102037.47
2018-10-09T07:22:50.503Z,102036.69
2018-10-09T07:25:19.757Z,102010.49
2018-10-09T07:27:48.974Z,102033.45
2018-10-09T07:30:18.167Z,102028.95
2018-10-09T07:32:47.384Z,102029.92
2018-10-09T07:35:16.545Z,102030.37
2018-10-09T07:37:45.761Z,102042.38
2018-10-09T07:40:14.934Z,102056.02
2018-10-09T07:42:44.274Z,102056.59
2018-10-09T07:45:13.520Z,102062.53
2018-10-09T07:47:42.732Z,102073.77
2018-10-09T07:50:12.233Z,102071.91
2018-10-09T07:52:41.447Z,102063.38
2018-10-09T07:55:10.823Z,102063.77
2018-10-09T07:57:40.083Z,102062.47
2018-10-09T08:00:09.289Z,102065.70
2018-10-09T08:02:38.421Z,102056.97
2018-10-09T08:05:07.655Z,102072.23
2018-10-09T08:07:37.103Z,102059.25
2018-10-09T08:10:06.674Z,102065.47
2018-10-09T08:12:35.835Z,102074.34
2018-10-09T08:15:05.080Z,102076.41
2018-10-09T08:17:34.298Z,102076.48
2018-10-09T08:20:03.565Z,102076.47
2018-10-09T08:22:32.771Z,102079.19
2018-10-09T08:25:01.945Z,102078.34
2018-10-09T08:27:31.100Z,102078.81
2018-10-09T08:30:00.285Z,102079.66
2018-10-09T08:32:29.472Z,102078.44
2018-10-09T08:34:58.712Z,102078.34
2018-10-09T08:37:27.872Z,102084.08
2018-10-09T08:39:57.033Z,102079.14
2018-10-09T08:42:26.226Z,102068.82
2018-10-09T08:44:55.399Z,102070.39
2018-10-09T08:47:24.592Z,102077.13
2018-10-09T08:49:53.797Z,102078.20
2018-10-09T08:52:23.003Z,102081.31
2018-10-09T08:54:52.200Z,102081.20
2018-10-09T08:57:21.397Z,102083.28
2018-10-09T08:59:50.588Z,102076.64
2018-10-09T09:02:19.840Z,102075.48
2018-10-09T09:04:48.993Z,102076.95
2018-10-09T09:07:18.204Z,102076.63
2018-10-09T09:09:47.448Z,102073.36
2018-10-09T09:12:16.593Z,102068.44
2018-10-09T09:14:45.829Z,102070.89
2018-10-09T09:17:14.988Z,102074.05
2018-10-09T09:19:44.218Z,102065.88
2018-10-09T09:22:13.400Z,102065.56
2018-10-09T09:24:42.739Z,102068.30
2018-10-09T09:27:12.058Z,102063.25
2018-10-09T09:29:41.147Z,102054.83
2018-10-09T09:32:10.359Z,102053.83
2018-10-09T09:34:39.623Z,102049.69
2018-10-09T09:37:08.875Z,102054.14
2018-10-09T09:39:38.073Z,102054.95
2018-10-09T09:42:07.271Z,102054.36
2018-10-09T09:44:36.568Z,102059.31
2018-10-09T09:47:05.809Z,102058.05
2018-10-09T09:49:35.033Z,102060.23
2018-10-09T09:52:04.226Z,102056.16
2018-10-09T09:54:33.428Z,102050.84
2018-10-09T09:57:02.632Z,102053.70
2018-10-09T09:59:31.793Z,102055.21
2018-10-09T10:02:01.021Z,102058.23
2018-10-09T10:04:30.264Z,102055.20
2018-10-09T10:06:59.452Z,102056.11
2018-10-09T10:09:28.695Z,102063.76
2018-10-09T10:11:57.847Z,102064.15
2018-10-09T10:14:27.045Z,102066.44
2018-10-09T10:16:56.249Z,102070.34
2018-10-09T10:19:25.426Z,102062.62
2018-10-09T10:21:55.001Z,102057.97
2018-10-09T10:24:24.246Z,102052.83
2018-10-09T10:26:53.463Z,102055.97
2018-10-09T10:29:22.729Z,102047.20
2018-10-09T10:31:52.085Z,102046.69
2018-10-09T10:34:21.300Z,102047.03
2018-10-09T10:36:50.643Z,102036.00
2018-10-09T10:39:19.678Z,102044.25
2018-10-09T10:41:48.874Z,102044.25
2018-10-09T10:44:18.086Z,102046.47
2018-10-09T10:46:47.277Z,102044.75
2018-10-09T10:49:16.480Z,102055.20
2018-10-09T10:51:45.603Z,102047.91
2018-10-09T10:54:14.747Z,102050.36
2018-10-09T10:56:43.961Z,102050.20
2018-10-09T10:59:13.185Z,102048.53
2018-10-09T11:01:42.509Z,102046.33
2018-10-09T11:04:11.652Z,102045.20
2018-10-09T11:06:40.804Z,102048.42
2018-10-09T11:09:10.927Z,102043.95
2018-10-09T11:11:40.098Z,102033.88
2018-10-09T11:14:09.318Z,102040.27
2018-10-09T11:16:38.491Z,102046.50
2018-10-09T11:19:07.721Z,102047.47
2018-10-09T11:21:36.918Z,102038.62
2018-10-09T11:24:06.122Z,102041.84
2018-10-09T11:26:35.308Z,102042.99
2018-10-09T11:29:04.564Z,102034.84
2018-10-09T11:31:33.818Z,102032.30
2018-10-09T11:34:02.996Z,102036.09
2018-10-09T11:36:32.154Z,102041.42
2018-10-09T11:39:01.364Z,102035.59
2018-10-09T11:41:33.622Z,102037.29
2018-10-09T11:44:03.701Z,102029.07
2018-10-09T11:46:33.966Z,102022.87
2018-10-09T11:49:03.208Z,102020.33
2018-10-09T11:51:32.375Z,102010.89
2018-10-09T11:54:01.516Z,102008.59
2018-10-09T11:56:30.681Z,102005.58
2018-10-09T11:58:59.913Z,102004.38
2018-10-09T12:01:29.085Z,102001.59
2018-10-09T12:03:58.281Z,101997.02
2018-10-09T12:06:28.488Z,101991.86
2018-10-09T12:08:57.649Z,101993.48
2018-10-09T12:11:26.797Z,101992.03
2018-10-09T12:13:56.093Z,101990.41
2018-10-09T12:16:25.348Z,101990.38
2018-10-09T12:18:54.513Z,101988.30
2018-10-09T12:21:23.724Z,101982.09
2018-10-09T12:23:52.845Z,101986.80
2018-10-09T12:26:22.041Z,101986.30
2018-10-09T12:28:51.226Z,101989.31
2018-10-09T12:31:20.437Z,101983.14
2018-10-09T12:33:49.577Z,101988.44
2018-10-09T12:36:18.751Z,101985.55
2018-10-09T12:38:47.884Z,101985.36
2018-10-09T12:41:17.071Z,101974.44
2018-10-09T12:43:46.277Z,101974.07
2018-10-09T12:46:15.459Z,101977.66
2018-10-09T12:48:44.677Z,101972.09
2018-10-09T12:51:13.843Z,101969.95
2018-10-09T12:53:42.965Z,101963.58
2018-10-09T12:56:12.135Z,101969.61
2018-10-09T12:58:41.385Z,101969.17
2018-10-09T13:01:10.492Z,101957.25
2018-10-09T13:03:39.678Z,101958.59
2018-10-09T13:06:08.848Z,101960.21
2018-10-09T13:08:38.219Z,101960.97
2018-10-09T13:11:07.893Z,101955.59
2018-10-09T13:13:37.083Z,101958.57
2018-10-09T13:16:06.287Z,101958.09
2018-10-09T13:18:35.511Z,101951.30
2018-10-09T13:21:04.802Z,101947.80
2018-10-09T13:23:33.929Z,101943.02
2018-10-09T13:26:03.110Z,101944.73
2018-10-09T13:28:32.291Z,101940.62
2018-10-09T13:31:01.675Z,101948.88
2018-10-09T13:33:30.897Z,101946.92
2018-10-09T13:36:00.084Z,101952.62
2018-10-09T13:38:29.274Z,101952.32
2018-10-09T13:40:58.492Z,101946.06
2018-10-09T13:43:27.762Z,101942.83
2018-10-09T13:45:56.958Z,101937.61
2018-10-09T13:48:26.199Z,101938.98
2018-10-09T13:50:55.465Z,101941.91
2018-10-09T13:53:24.634Z,101944.30
2018-10-09T13:55:53.834Z,101940.72
2018-10-09T13:58:23.121Z,101938.93
2018-10-09T14:00:52.262Z,101946.91
2018-10-09T14:03:21.527Z,101943.55
2018-10-09T14:05:50.660Z,101943.38
2018-10-09T14:08:20.221Z,101937.89
2018-10-09T14:10:49.399Z,101942.80
2018-10-09T14:13:18.600Z,101936.47
2018-10-09T14:15:47.856Z,101936.20
2018-10-09T14:18:17.065Z,101937.47
2018-10-09T14:20:46.420Z,101934.36
2018-10-09T14:23:16.760Z,101932.55
2018-10-09T14:25:47.114Z,101931.63
2018-10-09T14:28:20.364Z,101930.27
2018-10-09T14:30:49.628Z,101932.13
2018-10-09T14:33:24.206Z,101925.06
2018-10-09T14:36:01.553Z,101918.35
2018-10-09T14:38:31.360Z,101924.53
2018-10-09T14:41:00.593Z,101922.82
2018-10-09T14:43:29.788Z,101922.47
2018-10-09T14:45:59.009Z,101922.67
2018-10-09T14:48:29.420Z,101918.95
2018-10-09T14:50:58.651Z,101922.36
2018-10-09T14:58:26.256Z,101925.98
2018-10-09T15:00:55.930Z,101922.97
2018-10-09T15:03:25.583Z,101921.67
2018-10-09T15:05:55.065Z,101924.33
2018-10-09T15:08:25.315Z,101923.27
2018-10-09T15:10:55.200Z,101921.25
2018-10-09T15:13:24.495Z,101922.96
2018-10-09T15:15:53.994Z,101916.99
2018-10-09T15:18:23.547Z,101921.03
2018-10-09T15:20:52.985Z,101920.17
2018-10-09T15:23:23.571Z,101921.66
2018-10-09T15:25:53.170Z,101924.66
2018-10-09T15:28:22.860Z,101917.78
2018-10-09T15:33:30.881Z,101921.16
2018-10-09T15:36:00.086Z,101923.44
2018-10-09T15:38:29.345Z,101919.41
2018-10-09T15:40:58.831Z,101920.38
2018-10-09T15:43:28.131Z,101916.91
2018-10-09T15:45:57.421Z,101919.88
2018-10-09T15:48:26.721Z,101921.95
2018-10-09T15:50:56.161Z,101915.02
2018-10-09T15:53:25.926Z,101933.77
2018-10-09T15:55:55.223Z,101934.16
2018-10-09T15:58:24.958Z,101932.20
2018-10-09T16:00:54.333Z,101931.59
2018-10-09T16:06:07.068Z,101934.69
2018-10-09T16:08:36.245Z,101937.06
2018-10-09T16:11:05.539Z,101931.94
2018-10-09T16:13:34.769Z,101936.88
2018-10-09T16:16:03.936Z,101930.44
2018-10-09T16:18:33.202Z,101938.83
2018-10-09T16:21:03.691Z,101932.86
2018-10-09T16:23:34.777Z,101939.13
2018-10-09T16:26:04.098Z,101931.87
2018-10-09T16:28:33.601Z,101936.35
2018-10-09T16:31:02.946Z,101932.91
2018-10-09T16:33:32.146Z,101933.70
2018-10-09T16:36:07.355Z,101943.70
2018-10-09T16:38:36.588Z,101940.47
2018-10-09T16:41:07.098Z,101936.13
2018-10-09T16:43:36.395Z,101938.36
2018-10-09T16:46:06.254Z,101936.88
2018-10-09T16:48:35.581Z,101938.73
2018-10-09T16:51:04.918Z,101941.20
2018-10-09T16:53:34.272Z,101941.67
2018-10-09T16:56:03.464Z,101946.50
2018-10-09T16:58:32.712Z,101947.56
2018-10-09T17:01:02.059Z,101945.73
2018-10-09T17:03:31.391Z,101948.06
2018-10-09T17:06:00.737Z,101950.92
2018-10-09T17:08:29.989Z,101951.66
2018-10-09T17:10:59.312Z,101950.16
2018-10-09T17:13:28.590Z,101957.38
2018-10-09T17:15:57.868Z,101954.52
2018-10-09T17:18:28.162Z,101965.83
2018-10-09T17:20:57.409Z,101967.57
2018-10-09T17:23:26.628Z,101964.40
2018-10-09T17:25:55.862Z,101966.73
2018-10-09T17:28:25.110Z,101965.81
2018-10-09T17:30:54.369Z,101973.73
2018-10-09T17:33:23.738Z,101975.33
2018-10-09T17:35:52.945Z,101975.64
2018-10-09T17:38:22.194Z,101974.59
2018-10-09T17:40:51.460Z,101983.48
2018-10-09T17:43:20.661Z,101982.18
2018-10-09T17:45:49.932Z,101978.99
2018-10-09T17:48:19.216Z,101982.55
2018-10-09T17:50:48.369Z,101980.61
2018-10-09T17:53:17.639Z,101981.97
2018-10-09T17:55:46.838Z,101986.28
2018-10-09T17:58:15.996Z,101983.99
2018-10-09T18:00:45.245Z,101979.17
2018-10-09T18:03:14.599Z,101981.50
2018-10-09T18:05:43.756Z,101984.42
2018-10-09T18:08:13.132Z,101982.52
2018-10-09T18:10:42.556Z,101973.58
2018-10-09T18:13:12.716Z,101973.26
2018-10-09T18:15:42.053Z,101974.55
2018-10-09T18:18:11.228Z,101978.52
2018-10-09T18:20:40.405Z,101975.30
2018-10-09T18:23:09.653Z,101972.00
2018-10-09T18:25:38.811Z,101974.69
2018-10-09T18:28:08.272Z,101972.14
2018-10-09T18:30:37.458Z,101975.14
2018-10-09T18:33:06.987Z,101967.17
2018-10-09T18:35:37.184Z,101973.22
2018-10-09T18:38:06.543Z,101970.22
2018-10-09T18:40:35.748Z,101978.72
2018-10-09T18:43:04.970Z,101982.16
2018-10-09T18:45:34.250Z,101983.79
2018-10-09T18:48:03.448Z,101978.73
2018-10-09T18:50:32.632Z,101978.20
2018-10-09T18:53:01.789Z,101981.74
2018-10-09T18:55:31.020Z,101988.16
2018-10-09T18:58:00.298Z,101988.67
2018-10-09T19:00:29.602Z,101994.70
2018-10-09T19:02:58.835Z,101992.94
2018-10-09T19:05:28.003Z,101997.08
2018-10-09T19:07:57.131Z,101994.49
2018-10-09T19:10:26.337Z,101997.19
2018-10-09T19:12:55.812Z,101996.87
2018-10-09T19:15:25.114Z,101995.31
2018-10-09T19:17:54.331Z,101999.45
2018-10-09T19:20:23.599Z,101998.49
2018-10-09T19:22:52.760Z,101990.28
2018-10-09T19:25:22.013Z,101998.73
2018-10-09T19:27:51.219Z,101994.88
2018-10-09T19:30:20.424Z,101993.05
2018-10-09T19:32:49.597Z,102002.23
2018-10-09T19:35:18.928Z,102002.00
2018-10-09T19:37:48.092Z,102003.98
2018-10-09T19:40:17.300Z,102003.31
2018-10-09T19:42:46.641Z,102006.33
2018-10-09T19:45:15.906Z,102008.81
2018-10-09T19:47:45.129Z,102013.72
2018-10-09T19:50:14.311Z,102010.16
2018-10-09T19:52:43.515Z,102008.28
2018-10-09T19:55:12.667Z,102007.64
2018-10-09T19:57:41.988Z,102006.73
2018-10-09T20:00:11.167Z,102005.72
2018-10-09T20:02:42.390Z,102003.72
2018-10-09T20:05:11.606Z,102011.91
2018-10-09T20:07:40.915Z,102016.56
2018-10-09T20:10:10.408Z,102017.59
2018-10-09T20:12:39.575Z,102019.38
2018-10-09T20:15:08.824Z,102023.73
2018-10-09T20:17:38.134Z,102023.41
2018-10-09T20:20:07.359Z,102025.23
2018-10-09T20:22:36.680Z,102028.24
2018-10-09T20:25:05.926Z,102024.58
2018-10-09T20:27:35.899Z,102026.35
2018-10-09T20:30:05.195Z,102028.41
2018-10-09T20:32:34.540Z,102029.81
2018-10-09T20:35:03.764Z,102030.18
2018-10-09T20:37:32.958Z,102036.02
2018-10-09T20:40:02.158Z,102036.77
2018-10-09T20:42:31.384Z,102034.97
2018-10-09T20:45:00.572Z,102034.26
2018-10-09T20:47:35.056Z,102034.72
2018-10-09T20:50:04.341Z,102038.25
2018-10-09T20:52:33.489Z,102040.97
2018-10-09T20:55:02.673Z,102044.63
2018-10-09T20:57:31.905Z,102045.05
2018-10-09T21:00:01.151Z,102043.61
2018-10-09T21:02:30.330Z,102046.79
2018-10-09T21:04:59.558Z,102044.30
2018-10-09T21:07:28.776Z,102041.16
2018-10-09T21:09:58.952Z,102043.37
2018-10-09T21:12:28.140Z,102047.00
2018-10-09T21:14:57.261Z,102047.59
2018-10-09T21:17:26.521Z,102049.53
2018-10-09T21:19:55.661Z,102046.58
2018-10-09T21:22:24.903Z,102039.96
2018-10-09T21:24:54.097Z,102043.52
2018-10-09T21:27:23.204Z,102041.03
2018-10-09T21:29:52.417Z,102039.77
2018-10-09T21:32:21.567Z,102040.18
2018-10-09T21:34:50.708Z,102042.80
2018-10-09T21:37:19.832Z,102047.34
2018-10-09T21:39:48.961Z,102041.88
2018-10-09T21:42:18.074Z,102041.41
2018-10-09T21:44:47.344Z,102038.53
2018-10-09T21:47:17.645Z,102036.92
2018-10-09T21:49:46.763Z,102039.56
2018-10-09T21:52:15.940Z,102038.14
2018-10-09T21:54:45.227Z,102031.22
2018-10-09T21:57:14.476Z,102030.11
2018-10-09T21:59:43.621Z,102029.92
2018-10-09T22:02:12.796Z,102031.78
2018-10-09T22:04:42.050Z,102039.53
2018-10-09T22:07:19.281Z,102034.46
2018-10-09T22:09:50.792Z,102040.44
2018-10-09T22:12:20.125Z,102038.09
2018-10-09T22:14:49.304Z,102037.05
2018-10-09T22:17:18.536Z,102040.91
2018-10-09T22:19:47.685Z,102042.45
2018-10-09T22:22:16.891Z,102042.20
2018-10-09T22:24:46.124Z,102046.22
2018-10-09T22:27:15.290Z,102041.91
2018-10-09T22:29:44.511Z,102040.53
2018-10-09T22:32:13.740Z,102042.06
2018-10-09T22:34:42.978Z,102041.39
2018-10-09T22:37:12.319Z,102039.95
2018-10-09T22:39:41.824Z,102039.53
2018-10-09T22:42:11.111Z,102043.96
2018-10-09T22:44:40.354Z,102036.56
2018-10-09T22:47:09.633Z,102037.61
2018-10-09T22:49:38.842Z,102035.89
2018-10-09T22:52:08.191Z,102034.72
2018-10-09T22:54:37.345Z,102033.01
2018-10-09T22:57:06.606Z,102041.62
2018-10-09T22:59:35.807Z,102046.16
2018-10-09T23:02:05.096Z,102046.72
2018-10-09T23:04:34.382Z,102051.95
2018-10-09T23:07:03.534Z,102046.30
2018-10-09T23:09:32.763Z,102051.98
2018-10-09T23:12:01.904Z,102053.99
2018-10-09T23:14:31.106Z,102052.29
2018-10-09T23:17:00.383Z,102054.56
2018-10-09T23:19:29.515Z,102052.85
2018-10-09T23:21:58.835Z,102051.70
2018-10-09T23:24:27.979Z,102058.27
2018-10-09T23:26:57.198Z,102056.52
2018-10-09T23:29:26.367Z,102052.72
2018-10-09T23:31:55.520Z,102045.75
2018-10-09T23:34:24.700Z,102053.27
2018-10-09T23:36:53.831Z,102058.80
2018-10-09T23:39:23.046Z,102056.39
2018-10-09T23:41:52.290Z,102053.75
2018-10-09T23:44:21.474Z,102056.48
2018-10-09T23:46:51.433Z,102054.78
2018-10-09T23:49:20.616Z,102050.59
2018-10-09T23:51:49.908Z,102057.06
2018-10-09T23:54:19.101Z,102049.04
2018-10-09T23:56:48.472Z,102053.11
2018-10-09T23:59:17.644Z,102052.34
